createdAt,value
2019-01-18T00:01:43.029Z,0.73
2019-01-18T00:04:32.882Z,1.43
2019-01-18T00:07:22.682Z,1.63
2019-01-18T00:10:12.456Z,1.40
2019-01-18T00:13:02.238Z,1.10
2019-01-18T00:15:52.024Z,0.60
2019-01-18T00:21:26.736Z,0.20
2019-01-18T00:24:16.478Z,0.20
2019-01-18T00:26:58.529Z,0.30
2019-01-18T00:29:48.282Z,0.20
2019-01-18T00:32:35.092Z,0.20
2019-01-18T00:35:24.842Z,0.40
2019-01-18T00:38:07.400Z,0.10
2019-01-18T00:40:57.181Z,0.30
2019-01-18T00:43:39.830Z,0.30
2019-01-18T00:46:29.574Z,0.23
2019-01-18T00:49:16.280Z,0.40
2019-01-18T00:52:06.038Z,0.17
2019-01-18T00:54:48.859Z,0.30
2019-01-18T00:57:38.602Z,0.33
2019-01-18T01:00:22.800Z,0.37
2019-01-18T01:03:12.528Z,0.50
2019-01-18T01:05:54.475Z,0.47
2019-01-18T01:08:45.121Z,0.40
2019-01-18T01:11:29.182Z,0.60
2019-01-18T01:14:18.932Z,1.20
2019-01-18T01:20:11.776Z,0.70
2019-01-18T01:22:54.069Z,1.00
2019-01-18T01:25:43.855Z,0.80
2019-01-18T01:28:33.687Z,1.23
2019-01-18T01:31:23.549Z,0.83
2019-01-18T01:34:13.504Z,0.90
2019-01-18T01:37:03.291Z,1.23
2019-01-18T01:39:53.024Z,1.30
2019-01-18T01:42:35.700Z,1.20
2019-01-18T01:45:44.592Z,1.20
2019-01-18T01:48:34.355Z,1.30
2019-01-18T01:51:24.120Z,1.30
2019-01-18T01:54:14.065Z,1.40
2019-01-18T01:57:04.273Z,0.97
2019-01-18T01:59:54.021Z,1.20
2019-01-18T02:02:43.886Z,1.07
2019-01-18T02:05:33.658Z,1.70
2019-01-18T02:08:23.453Z,1.33
2019-01-18T02:11:13.284Z,1.30
2019-01-18T02:14:03.089Z,1.40
2019-01-18T02:16:33.765Z,1.40
2019-01-18T02:19:23.505Z,1.40
2019-01-18T02:22:05.745Z,1.43
2019-01-18T02:24:55.710Z,1.57
2019-01-18T02:28:06.032Z,1.43
2019-01-18T02:30:55.839Z,1.57
2019-01-18T02:33:39.160Z,1.50
2019-01-18T02:36:21.268Z,1.73
2019-01-18T02:39:11.057Z,1.77
2019-01-18T02:42:00.773Z,2.00
2019-01-18T02:44:47.405Z,2.23
2019-01-18T02:47:30.353Z,2.00
2019-01-18T02:50:20.136Z,1.80
2019-01-18T02:53:09.946Z,1.80
2019-01-18T02:55:59.818Z,1.93
2019-01-18T02:58:49.595Z,2.00
2019-01-18T03:01:39.339Z,2.00
2019-01-18T03:04:29.091Z,1.80
2019-01-18T03:06:59.771Z,1.70
2019-01-18T03:09:49.515Z,1.93
2019-01-18T03:12:39.240Z,2.03
2019-01-18T03:15:22.636Z,1.93
2019-01-18T03:18:12.390Z,2.00
2019-01-18T03:20:55.119Z,1.80
2019-01-18T03:24:03.953Z,2.00
2019-01-18T03:26:46.363Z,1.97
2019-01-18T03:29:36.123Z,1.70
2019-01-18T03:32:18.831Z,2.53
2019-01-18T03:35:10.125Z,2.10
2019-01-18T03:37:59.950Z,2.37
2019-01-18T03:40:49.739Z,2.20
2019-01-18T03:43:58.615Z,2.30
2019-01-18T03:46:48.647Z,2.47
2019-01-18T03:49:38.427Z,2.57
2019-01-18T03:52:28.218Z,2.30
2019-01-18T03:55:18.099Z,2.63
2019-01-18T04:01:11.536Z,2.50
2019-01-18T04:04:01.585Z,2.90
2019-01-18T04:07:10.628Z,2.50
2019-01-18T04:09:53.254Z,2.77
2019-01-18T04:15:46.266Z,2.90
2019-01-18T04:18:28.865Z,2.80
2019-01-18T04:21:18.666Z,3.03
2019-01-18T04:24:08.423Z,2.90
2019-01-18T04:26:50.853Z,3.17
2019-01-18T04:29:40.647Z,2.90
2019-01-18T04:32:30.444Z,2.83
2019-01-18T04:35:32.946Z,3.03
2019-01-18T04:38:15.802Z,2.90
2019-01-18T04:44:06.544Z,2.67
2019-01-18T04:46:48.658Z,3.00
2019-01-18T04:49:38.414Z,2.83
2019-01-18T04:52:28.197Z,2.43
2019-01-18T04:58:14.060Z,2.87
2019-01-18T05:01:03.836Z,3.40
2019-01-18T05:03:46.535Z,2.80
2019-01-18T05:06:37.054Z,2.90
2019-01-18T05:09:20.948Z,3.00
2019-01-18T05:12:10.692Z,2.80
2019-01-18T05:14:53.596Z,3.00
2019-01-18T05:17:43.385Z,2.90
2019-01-18T05:20:25.574Z,3.07
2019-01-18T05:23:15.351Z,3.00
2019-01-18T05:25:58.008Z,3.10
2019-01-18T05:28:51.718Z,3.20
2019-01-18T05:31:34.704Z,3.20
2019-01-18T05:34:24.422Z,2.93
2019-01-18T05:37:07.203Z,3.00
2019-01-18T05:39:56.978Z,3.10
2019-01-18T05:42:39.174Z,3.00
2019-01-18T05:45:28.992Z,3.10
2019-01-18T05:48:11.405Z,2.80
2019-01-18T05:51:01.183Z,3.13
2019-01-18T05:53:43.753Z,3.17
2019-01-18T05:56:33.540Z,3.40
2019-01-18T05:59:17.555Z,3.40
2019-01-18T06:02:07.401Z,3.13
2019-01-18T06:07:57.575Z,3.47
2019-01-18T06:10:47.485Z,3.07
2019-01-18T06:13:39.142Z,3.10
2019-01-18T06:16:25.444Z,2.80
2019-01-18T06:19:08.194Z,3.13
2019-01-18T06:21:58.315Z,3.17
2019-01-18T06:24:48.114Z,3.30
2019-01-18T06:27:38.003Z,3.13
2019-01-18T06:30:27.849Z,3.30
2019-01-18T06:33:17.631Z,3.13
2019-01-18T06:36:07.477Z,4.00
2019-01-18T06:38:57.433Z,3.20
2019-01-18T06:42:06.049Z,3.50
2019-01-18T06:44:49.010Z,3.77
2019-01-18T06:47:38.873Z,3.40
2019-01-18T06:50:28.653Z,2.80
2019-01-18T06:53:18.703Z,3.07
2019-01-18T06:56:03.111Z,3.23
2019-01-18T06:58:46.915Z,3.30
2019-01-18T07:01:37.343Z,3.20
2019-01-18T07:04:27.527Z,3.67
2019-01-18T07:07:17.351Z,3.13
2019-01-18T07:10:08.331Z,4.33
2019-01-18T07:12:58.099Z,5.10
2019-01-18T07:15:28.767Z,3.80
2019-01-18T07:18:18.511Z,4.33
2019-01-18T07:21:08.271Z,4.90
2019-01-18T07:23:50.332Z,6.07
2019-01-18T07:26:40.047Z,6.83
2019-01-18T07:29:22.585Z,7.63
2019-01-18T07:32:12.319Z,8.77
2019-01-18T07:34:54.641Z,7.87
2019-01-18T07:37:44.394Z,7.80
2019-01-18T07:40:27.340Z,8.47
2019-01-18T07:43:17.101Z,10.23
2019-01-18T07:46:01.362Z,10.13
2019-01-18T07:48:51.118Z,12.47
2019-01-18T07:51:33.501Z,12.10
2019-01-18T07:54:23.253Z,34.97
2019-01-18T07:57:05.607Z,14.63
2019-01-18T07:59:57.757Z,14.50
2019-01-18T08:02:41.479Z,14.70
2019-01-18T08:05:32.801Z,13.60
2019-01-18T08:08:15.159Z,12.83
2019-01-18T08:11:04.925Z,13.13
2019-01-18T08:13:46.967Z,10.97
2019-01-18T08:16:36.731Z,8.23
2019-01-18T08:19:19.010Z,7.83
2019-01-18T08:22:08.729Z,6.83
2019-01-18T08:24:51.231Z,6.10
2019-01-18T08:27:40.966Z,6.50
2019-01-18T08:30:24.388Z,6.07
2019-01-18T08:33:14.126Z,8.27
2019-01-18T08:35:56.896Z,10.60
2019-01-18T08:38:46.630Z,10.83
2019-01-18T08:41:36.376Z,10.07
2019-01-18T08:44:18.835Z,7.07
2019-01-18T08:47:08.605Z,5.53
2019-01-18T08:49:58.382Z,5.40
2019-01-18T08:56:06.550Z,5.27
2019-01-18T08:58:56.322Z,5.17
2019-01-18T09:01:46.095Z,4.93
2019-01-18T09:04:35.960Z,5.00
2019-01-18T09:07:25.739Z,4.50
2019-01-18T09:13:07.228Z,5.63
2019-01-18T09:15:56.982Z,7.63
2019-01-18T09:18:39.410Z,11.77
2019-01-18T09:21:29.146Z,10.03
2019-01-18T09:24:11.507Z,9.47
2019-01-18T09:27:01.203Z,10.90
2019-01-18T09:29:43.656Z,11.53
2019-01-18T09:32:33.390Z,9.90
2019-01-18T09:35:16.664Z,9.17
2019-01-18T09:38:09.443Z,10.50
2019-01-18T09:40:59.199Z,10.03
2019-01-18T09:43:49.028Z,9.17
2019-01-18T09:46:38.826Z,9.83
2019-01-18T09:49:28.554Z,8.60
2019-01-18T09:52:18.268Z,8.80
2019-01-18T09:55:08.724Z,9.63
2019-01-18T09:57:51.710Z,8.60
2019-01-18T10:00:41.598Z,8.93
2019-01-18T10:03:23.733Z,9.93
2019-01-18T10:06:13.470Z,9.83
2019-01-18T10:08:55.480Z,8.90
2019-01-18T10:14:39.317Z,7.50
2019-01-18T10:20:18.628Z,8.80
2019-01-18T10:23:07.832Z,7.70
2019-01-18T10:28:56.314Z,7.47
2019-01-18T10:31:46.042Z,8.23
2019-01-18T10:34:28.515Z,7.77
2019-01-18T10:37:18.236Z,6.53
2019-01-18T10:40:01.044Z,8.10
2019-01-18T10:42:51.173Z,7.57
2019-01-18T10:45:33.655Z,10.17
2019-01-18T10:48:23.433Z,7.23
2019-01-18T10:51:06.036Z,7.93
2019-01-18T10:53:55.792Z,7.80
2019-01-18T10:56:38.242Z,9.10
2019-01-18T10:59:27.942Z,8.80
2019-01-18T11:02:10.077Z,8.63
2019-01-18T11:04:59.788Z,9.20
2019-01-18T11:07:41.977Z,8.33
2019-01-18T11:10:31.739Z,8.40
2019-01-18T11:13:13.925Z,7.27
2019-01-18T11:16:03.662Z,8.37
2019-01-18T11:21:51.317Z,8.37
2019-01-18T11:24:41.074Z,7.53
2019-01-18T11:27:23.075Z,7.37
2019-01-18T11:33:31.014Z,7.27
2019-01-18T11:36:20.821Z,7.37
2019-01-18T11:39:10.737Z,6.93
2019-01-18T11:42:00.553Z,6.23
2019-01-18T11:44:50.326Z,7.57
2019-01-18T11:47:40.105Z,6.97
2019-01-18T11:50:29.939Z,6.17
2019-01-18T11:53:19.785Z,5.50
2019-01-18T11:56:09.551Z,5.80
2019-01-18T11:58:59.281Z,5.63
2019-01-18T12:01:41.905Z,4.50
2019-01-18T12:04:31.725Z,5.03
2019-01-18T12:07:21.500Z,5.03
2019-01-18T12:10:14.468Z,5.83
2019-01-18T12:13:04.404Z,4.63
2019-01-18T12:15:54.220Z,6.50
2019-01-18T12:18:43.978Z,6.57
2019-01-18T12:21:37.215Z,5.43
2019-01-18T12:24:19.377Z,5.63
2019-01-18T12:27:09.191Z,6.00
2019-01-18T12:29:59.020Z,5.73
2019-01-18T12:32:48.915Z,5.97
2019-01-18T12:35:38.687Z,5.40
2019-01-18T12:38:25.562Z,6.23
2019-01-18T12:41:07.921Z,5.90
2019-01-18T12:43:57.728Z,4.60
2019-01-18T12:46:47.508Z,5.30
2019-01-18T12:49:37.328Z,4.70
2019-01-18T12:52:27.144Z,4.57
2019-01-18T12:55:16.906Z,4.73
2019-01-18T12:58:07.214Z,3.97
2019-01-18T13:00:56.954Z,4.33
2019-01-18T13:03:39.366Z,3.93
2019-01-18T13:06:29.188Z,3.70
2019-01-18T13:09:11.116Z,3.23
2019-01-18T13:12:00.849Z,3.30
2019-01-18T13:14:43.025Z,3.47
2019-01-18T13:17:32.778Z,3.53
2019-01-18T13:20:15.250Z,2.93
2019-01-18T13:23:24.082Z,3.40
2019-01-18T13:26:07.067Z,3.17
2019-01-18T13:31:46.336Z,2.87
2019-01-18T13:34:36.140Z,3.07
2019-01-18T13:37:26.158Z,2.60
2019-01-18T13:40:17.957Z,2.50
2019-01-18T13:43:08.074Z,2.73
2019-01-18T13:45:50.756Z,3.20
2019-01-18T13:48:40.576Z,2.90
2019-01-18T13:51:30.576Z,3.37
2019-01-18T13:54:20.375Z,3.43
2019-01-18T13:57:12.253Z,2.63
2019-01-18T13:59:54.828Z,2.50
2019-01-18T14:02:48.403Z,3.00
2019-01-18T14:05:29.547Z,2.70
2019-01-18T14:08:19.410Z,3.00
2019-01-18T14:11:13.244Z,3.00
2019-01-18T14:14:03.073Z,2.40
2019-01-18T14:16:46.096Z,2.57
2019-01-18T14:19:36.511Z,2.63
2019-01-18T14:22:26.352Z,2.57
2019-01-18T14:25:16.232Z,2.30
2019-01-18T14:28:06.536Z,2.57
2019-01-18T14:31:00.642Z,2.40
2019-01-18T14:33:50.853Z,2.47
2019-01-18T14:36:42.824Z,2.07
2019-01-18T14:39:24.929Z,2.07
2019-01-18T14:42:14.741Z,2.50
2019-01-18T14:45:05.249Z,2.40
2019-01-18T14:47:55.140Z,2.53
2019-01-18T14:50:38.394Z,2.50
2019-01-18T14:53:28.364Z,2.37
2019-01-18T14:56:18.469Z,2.70
2019-01-18T14:59:08.514Z,2.40
2019-01-18T15:02:11.893Z,2.50
2019-01-18T15:04:54.197Z,2.23
2019-01-18T15:07:46.220Z,1.90
2019-01-18T15:10:28.622Z,2.30
2019-01-18T15:16:35.635Z,2.27
2019-01-18T15:22:23.383Z,2.10
2019-01-18T15:25:13.103Z,2.13
2019-01-18T15:28:02.822Z,2.10
2019-01-18T15:30:45.791Z,2.07
2019-01-18T15:33:35.656Z,2.23
2019-01-18T15:41:58.787Z,2.37
2019-01-18T15:44:49.359Z,2.47
2019-01-18T15:50:30.241Z,3.23
2019-01-18T15:53:13.160Z,3.00
2019-01-18T15:56:04.179Z,2.77
2019-01-18T15:58:54.069Z,3.47
2019-01-18T16:01:44.345Z,2.90
2019-01-18T16:04:34.185Z,3.10
2019-01-18T16:07:24.431Z,3.33
2019-01-18T16:13:28.383Z,3.67
2019-01-18T16:16:31.428Z,3.50
2019-01-18T16:19:13.734Z,2.90
2019-01-18T16:22:03.523Z,3.20
2019-01-18T16:24:46.465Z,4.00
2019-01-18T16:27:36.209Z,3.87
2019-01-18T16:30:18.623Z,4.70
2019-01-18T16:33:08.707Z,4.13
2019-01-18T16:35:51.131Z,4.37
2019-01-18T16:38:40.980Z,4.40
2019-01-18T16:41:33.375Z,4.50
2019-01-18T16:44:23.173Z,3.80
2019-01-18T16:47:12.964Z,3.93
2019-01-18T16:50:03.704Z,3.70
2019-01-18T16:52:53.467Z,4.10
2019-01-18T16:55:44.135Z,4.30
2019-01-18T16:58:33.987Z,3.70
2019-01-18T17:01:23.773Z,4.10
2019-01-18T17:04:13.506Z,3.77
2019-01-18T17:06:55.583Z,4.43
2019-01-18T17:09:45.703Z,3.83
2019-01-18T17:12:35.529Z,3.90
2019-01-18T17:15:25.337Z,4.07
2019-01-18T17:18:15.219Z,4.07
2019-01-18T17:21:05.238Z,3.77
2019-01-18T17:23:55.057Z,4.20
2019-01-18T17:26:44.909Z,4.90
2019-01-18T17:29:34.727Z,4.93
2019-01-18T17:32:24.653Z,5.13
2019-01-18T17:35:36.042Z,4.60
2019-01-18T17:38:53.113Z,4.33
2019-01-18T17:41:56.351Z,4.77
2019-01-18T17:45:24.251Z,4.60
2019-01-18T17:48:39.817Z,5.00
2019-01-18T17:51:49.416Z,4.73
2019-01-18T17:54:36.723Z,5.03
2019-01-18T17:58:04.888Z,5.03
2019-01-18T18:01:06.158Z,4.50
2019-01-18T18:04:21.718Z,4.60
2019-01-18T18:07:24.034Z,4.53
2019-01-18T18:10:26.681Z,4.93
2019-01-18T18:13:16.886Z,4.73
2019-01-18T18:16:34.200Z,5.37
2019-01-18T18:19:35.691Z,4.60
2019-01-18T18:23:03.564Z,4.17
2019-01-18T18:25:52.034Z,4.00
2019-01-18T18:29:19.897Z,3.80
2019-01-18T18:32:24.460Z,3.77
2019-01-18T18:35:46.233Z,3.50
2019-01-18T18:38:49.044Z,4.03
2019-01-18T18:42:16.960Z,3.70
2019-01-18T18:45:18.723Z,3.30
2019-01-18T18:48:30.203Z,3.73
2019-01-18T18:51:33.008Z,3.40
2019-01-18T18:55:00.932Z,3.57
2019-01-18T18:58:08.159Z,3.40
2019-01-18T19:01:08.862Z,3.20
2019-01-18T19:04:10.323Z,4.00
2019-01-18T19:07:25.806Z,3.53
2019-01-18T19:10:11.629Z,3.80
2019-01-18T19:13:39.503Z,3.60
2019-01-18T19:16:26.019Z,3.43
2019-01-18T19:19:53.846Z,3.60
2019-01-18T19:22:55.874Z,3.37
2019-01-18T19:26:23.805Z,3.20
2019-01-18T19:29:31.185Z,3.20
2019-01-18T19:32:59.055Z,3.93
2019-01-18T19:35:52.282Z,3.80
2019-01-18T19:39:20.155Z,3.37
2019-01-18T19:42:28.103Z,2.97
2019-01-18T19:45:55.962Z,3.60
2019-01-18T19:49:02.923Z,3.73
2019-01-18T19:52:32.238Z,4.00
2019-01-18T19:58:40.467Z,4.33
2019-01-18T20:01:37.635Z,4.50
2019-01-18T20:04:27.837Z,3.90
2019-01-18T20:07:49.683Z,4.20
2019-01-18T20:10:43.151Z,3.93
2019-01-18T20:14:11.075Z,4.67
2019-01-18T20:17:15.667Z,4.37
2019-01-18T20:20:38.920Z,4.03
2019-01-18T20:23:30.631Z,4.00
2019-01-18T20:26:29.954Z,4.13
2019-01-18T20:29:38.201Z,4.20
2019-01-18T20:32:41.038Z,4.40
2019-01-18T20:36:02.271Z,4.17
2019-01-18T20:39:19.183Z,4.37
2019-01-18T20:42:14.767Z,4.40
2019-01-18T20:45:42.676Z,4.40
2019-01-18T20:48:58.978Z,4.33
2019-01-18T20:52:26.905Z,4.80
2019-01-18T20:55:29.569Z,4.77
2019-01-18T20:58:41.626Z,5.30
2019-01-18T21:01:48.667Z,5.40
2019-01-18T21:05:16.608Z,4.90
2019-01-18T21:08:39.086Z,4.60
2019-01-18T21:12:07.061Z,4.30
2019-01-18T21:15:18.824Z,4.47
2019-01-18T21:18:46.794Z,4.73
2019-01-18T21:22:14.733Z,5.30
2019-01-18T21:25:29.807Z,4.87
2019-01-18T21:28:57.743Z,4.33
2019-01-18T21:32:25.666Z,4.77
2019-01-18T21:35:41.008Z,4.63
2019-01-18T21:39:08.946Z,5.17
2019-01-18T21:45:14.510Z,4.90
2019-01-18T21:48:42.405Z,4.93
2019-01-18T21:52:10.732Z,4.67
2019-01-18T21:55:14.492Z,5.63
2019-01-18T21:58:42.332Z,4.80
2019-01-18T22:01:38.113Z,4.87
2019-01-18T22:04:52.576Z,4.93
2019-01-18T22:11:04.557Z,5.23
2019-01-18T22:14:18.003Z,5.00
2019-01-18T22:17:08.710Z,5.00
2019-01-18T22:20:36.629Z,4.73
2019-01-18T22:23:30.042Z,4.73
2019-01-18T22:26:52.351Z,5.13
2019-01-18T22:29:46.674Z,4.97
2019-01-18T22:33:01.215Z,5.30
2019-01-18T22:35:58.997Z,4.87
2019-01-18T22:39:26.906Z,5.33
2019-01-18T22:42:40.939Z,4.90
2019-01-18T22:45:26.658Z,5.20
2019-01-18T22:48:54.915Z,5.17
2019-01-18T22:52:23.124Z,5.17
2019-01-18T22:55:25.454Z,5.57
2019-01-18T22:58:27.870Z,5.20
2019-01-18T23:01:55.831Z,4.87
2019-01-18T23:04:57.399Z,4.77
2019-01-18T23:08:15.398Z,5.20
2019-01-18T23:11:43.302Z,5.20
2019-01-18T23:14:45.746Z,4.90
2019-01-18T23:21:23.957Z,5.67
2019-01-18T23:24:15.687Z,4.80
2019-01-18T23:27:19.443Z,5.33
2019-01-18T23:30:21.415Z,5.07
2019-01-18T23:33:49.260Z,5.27
2019-01-18T23:36:44.594Z,4.67
2019-01-18T23:40:12.516Z,5.30
2019-01-18T23:43:15.606Z,4.83
2019-01-18T23:46:44.246Z,5.80
2019-01-18T23:49:48.805Z,6.80
2019-01-18T23:53:16.861Z,6.60
2019-01-18T23:56:09.557Z,6.40
2019-01-18T23:59:22.859Z,6.20
